sensor_id;sensor_type;location;lat;lon;timestamp;P1;durP1;ratioP1;P2;durP2;ratioP2
31442;SDS011;18065;55.876;9.830;2024-01-11T00:00:07;4.07;;;3.00;;
31442;SDS011;18065;55.876;9.830;2024-01-11T00:02:36;5.00;;;3.10;;
31442;SDS011;18065;55.876;9.830;2024-01-11T00:05:06;4.13;;;2.92;;
31442;SDS011;18065;55.876;9.830;2024-01-11T00:07:35;4.43;;;2.70;;
31442;SDS011;18065;55.876;9.830;2024-01-11T00:10:07;3.58;;;2.95;;
31442;SDS011;18065;55.876;9.830;2024-01-11T00:12:37;3.90;;;3.05;;
31442;SDS011;18065;55.876;9.830;2024-01-11T00:15:06;4.75;;;3.13;;
31442;SDS011;18065;55.876;9.830;2024-01-11T00:17:36;3.17;;;2.88;;
31442;SDS011;18065;55.876;9.830;2024-01-11T00:20:05;3.25;;;2.58;;
31442;SDS011;18065;55.876;9.830;2024-01-11T00:22:36;3.95;;;3.25;;
31442;SDS011;18065;55.876;9.830;2024-01-11T00:25:07;3.50;;;2.58;;
31442;SDS011;18065;55.876;9.830;2024-01-11T00:27:36;5.22;;;2.83;;
31442;SDS011;18065;55.876;9.830;2024-01-11T00:30:06;3.30;;;3.00;;
31442;SDS011;18065;55.876;9.830;2024-01-11T00:32:36;4.13;;;2.65;;
31442;SDS011;18065;55.876;9.830;2024-01-11T00:35:05;3.38;;;2.95;;
31442;SDS011;18065;55.876;9.830;2024-01-11T00:37:34;3.70;;;2.90;;
31442;SDS011;18065;55.876;9.830;2024-01-11T00:40:04;3.25;;;2.70;;
31442;SDS011;18065;55.876;9.830;2024-01-11T00:42:36;3.35;;;2.75;;
31442;SDS011;18065;55.876;9.830;2024-01-11T00:45:05;4.07;;;2.50;;
31442;SDS011;18065;55.876;9.830;2024-01-11T00:47:35;3.10;;;2.60;;
31442;SDS011;18065;55.876;9.830;2024-01-11T00:50:04;2.78;;;2.47;;
31442;SDS011;18065;55.876;9.830;2024-01-11T00:52:34;3.20;;;2.25;;
31442;SDS011;18065;55.876;9.830;2024-01-11T00:55:04;3.42;;;2.67;;
31442;SDS011;18065;55.876;9.830;2024-01-11T00:57:36;2.72;;;2.35;;
31442;SDS011;18065;55.876;9.830;2024-01-11T01:00:05;2.42;;;1.92;;
31442;SDS011;18065;55.876;9.830;2024-01-11T01:02:35;3.67;;;2.47;;
31442;SDS011;18065;55.876;9.830;2024-01-11T01:05:04;2.80;;;2.35;;
31442;SDS011;18065;55.876;9.830;2024-01-11T01:07:34;2.92;;;2.28;;
31442;SDS011;18065;55.876;9.830;2024-01-11T01:10:03;2.80;;;2.35;;
31442;SDS011;18065;55.876;9.830;2024-01-11T01:12:35;2.70;;;2.50;;
31442;SDS011;18065;55.876;9.830;2024-01-11T01:15:05;2.58;;;2.20;;
31442;SDS011;18065;55.876;9.830;2024-01-11T01:17:34;2.55;;;2.28;;
31442;SDS011;18065;55.876;9.830;2024-01-11T01:20:01;2.50;;;2.15;;
31442;SDS011;18065;55.876;9.830;2024-01-11T01:22:29;2.45;;;2.13;;
31442;SDS011;18065;55.876;9.830;2024-01-11T01:24:58;2.22;;;1.92;;
31442;SDS011;18065;55.876;9.830;2024-01-11T01:27:27;3.25;;;2.22;;
31442;SDS011;18065;55.876;9.830;2024-01-11T01:29:59;3.08;;;2.33;;
31442;SDS011;18065;55.876;9.830;2024-01-11T01:32:28;2.70;;;2.10;;
31442;SDS011;18065;55.876;9.830;2024-01-11T01:34:56;2.85;;;2.15;;
31442;SDS011;18065;55.876;9.830;2024-01-11T01:37:25;3.08;;;2.45;;
31442;SDS011;18065;55.876;9.830;2024-01-11T01:39:54;3.55;;;2.30;;
31442;SDS011;18065;55.876;9.830;2024-01-11T01:42:23;2.53;;;2.00;;
31442;SDS011;18065;55.876;9.830;2024-01-11T01:44:52;2.30;;;2.10;;
31442;SDS011;18065;55.876;9.830;2024-01-11T01:47:23;2.45;;;2.10;;
31442;SDS011;18065;55.876;9.830;2024-01-11T01:49:53;3.17;;;1.90;;
31442;SDS011;18065;55.876;9.830;2024-01-11T01:52:24;2.75;;;2.20;;
31442;SDS011;18065;55.876;9.830;2024-01-11T01:54:53;2.08;;;1.88;;
31442;SDS011;18065;55.876;9.830;2024-01-11T01:57:22;2.35;;;2.15;;
31442;SDS011;18065;55.876;9.830;2024-01-11T01:59:51;2.55;;;1.90;;
31442;SDS011;18065;55.876;9.830;2024-01-11T02:02:20;2.63;;;2.08;;
31442;SDS011;18065;55.876;9.830;2024-01-11T02:04:52;2.85;;;2.20;;
31442;SDS011;18065;55.876;9.830;2024-01-11T02:07:22;2.67;;;1.88;;
31442;SDS011;18065;55.876;9.830;2024-01-11T02:09:51;2.88;;;1.60;;
31442;SDS011;18065;55.876;9.830;2024-01-11T02:12:20;3.83;;;2.00;;
31442;SDS011;18065;55.876;9.830;2024-01-11T02:14:50;1.90;;;1.80;;
31442;SDS011;18065;55.876;9.830;2024-01-11T02:17:20;2.50;;;1.88;;
31442;SDS011;18065;55.876;9.830;2024-01-11T02:19:51;1.80;;;1.70;;
31442;SDS011;18065;55.876;9.830;2024-01-11T02:22:21;1.98;;;1.77;;
31442;SDS011;18065;55.876;9.830;2024-01-11T02:24:55;3.28;;;1.98;;
31442;SDS011;18065;55.876;9.830;2024-01-11T02:27:24;1.70;;;1.60;;
31442;SDS011;18065;55.876;9.830;2024-01-11T02:29:53;1.92;;;1.65;;
31442;SDS011;18065;55.876;9.830;2024-01-11T02:32:21;2.00;;;1.70;;
31442;SDS011;18065;55.876;9.830;2024-01-11T02:34:50;2.00;;;1.50;;
31442;SDS011;18065;55.876;9.830;2024-01-11T02:37:20;1.77;;;1.67;;
31442;SDS011;18065;55.876;9.830;2024-01-11T02:39:49;2.03;;;1.80;;
31442;SDS011;18065;55.876;9.830;2024-01-11T02:42:21;1.70;;;1.60;;
31442;SDS011;18065;55.876;9.830;2024-01-11T02:44:49;2.38;;;1.60;;
31442;SDS011;18065;55.876;9.830;2024-01-11T02:47:18;1.80;;;1.38;;
31442;SDS011;18065;55.876;9.830;2024-01-11T02:49:47;1.52;;;1.30;;
31442;SDS011;18065;55.876;9.830;2024-01-11T02:52:16;2.08;;;1.60;;
31442;SDS011;18065;55.876;9.830;2024-01-11T02:54:45;2.33;;;1.60;;
31442;SDS011;18065;55.876;9.830;2024-01-11T02:57:14;2.20;;;1.80;;
31442;SDS011;18065;55.876;9.830;2024-01-11T02:59:45;2.80;;;1.60;;
31442;SDS011;18065;55.876;9.830;2024-01-11T03:02:14;2.47;;;1.52;;
31442;SDS011;18065;55.876;9.830;2024-01-11T03:04:43;1.77;;;1.60;;
31442;SDS011;18065;55.876;9.830;2024-01-11T03:07:12;1.67;;;1.13;;
31442;SDS011;18065;55.876;9.830;2024-01-11T03:09:41;1.40;;;1.30;;
31442;SDS011;18065;55.876;9.830;2024-01-11T03:12:10;1.80;;;1.25;;
31442;SDS011;18065;55.876;9.830;2024-01-11T03:14:39;1.60;;;1.45;;
31442;SDS011;18065;55.876;9.830;2024-01-11T03:17:10;1.95;;;1.58;;
31442;SDS011;18065;55.876;9.830;2024-01-11T03:19:39;1.50;;;1.33;;
31442;SDS011;18065;55.876;9.830;2024-01-11T03:22:08;1.58;;;1.40;;
31442;SDS011;18065;55.876;9.830;2024-01-11T03:24:40;1.42;;;1.27;;
31442;SDS011;18065;55.876;9.830;2024-01-11T03:27:09;1.67;;;1.58;;
31442;SDS011;18065;55.876;9.830;2024-01-11T03:29:38;2.03;;;1.40;;
31442;SDS011;18065;55.876;9.830;2024-01-11T03:32:07;1.63;;;1.33;;
31442;SDS011;18065;55.876;9.830;2024-01-11T03:34:39;1.33;;;1.20;;
31442;SDS011;18065;55.876;9.830;2024-01-11T03:37:08;1.90;;;1.70;;
31442;SDS011;18065;55.876;9.830;2024-01-11T03:39:37;1.85;;;1.17;;
31442;SDS011;18065;55.876;9.830;2024-01-11T03:42:06;1.98;;;1.50;;
31442;SDS011;18065;55.876;9.830;2024-01-11T03:44:36;1.70;;;1.60;;
31442;SDS011;18065;55.876;9.830;2024-01-11T03:47:05;1.30;;;1.20;;
31442;SDS011;18065;55.876;9.830;2024-01-11T03:49:36;1.85;;;1.58;;
31442;SDS011;18065;55.876;9.830;2024-01-11T03:52:05;1.58;;;1.48;;
31442;SDS011;18065;55.876;9.830;2024-01-11T03:54:34;2.17;;;1.30;;
31442;SDS011;18065;55.876;9.830;2024-01-11T03:57:03;1.40;;;1.27;;
31442;SDS011;18065;55.876;9.830;2024-01-11T03:59:32;1.30;;;1.13;;
31442;SDS011;18065;55.876;9.830;2024-01-11T04:02:01;1.50;;;1.35;;
31442;SDS011;18065;55.876;9.830;2024-01-11T04:04:30;1.33;;;1.17;;
31442;SDS011;18065;55.876;9.830;2024-01-11T04:07:02;2.22;;;1.20;;
31442;SDS011;18065;55.876;9.830;2024-01-11T04:09:31;1.20;;;1.10;;
31442;SDS011;18065;55.876;9.830;2024-01-11T04:12:00;1.70;;;1.10;;
31442;SDS011;18065;55.876;9.830;2024-01-11T04:14:29;1.40;;;1.30;;
31442;SDS011;18065;55.876;9.830;2024-01-11T04:16:58;1.27;;;1.17;;
31442;SDS011;18065;55.876;9.830;2024-01-11T04:19:27;1.48;;;1.38;;
31442;SDS011;18065;55.876;9.830;2024-01-11T04:21:55;1.33;;;1.23;;
31442;SDS011;18065;55.876;9.830;2024-01-11T04:24:27;2.03;;;1.10;;
31442;SDS011;18065;55.876;9.830;2024-01-11T04:26:56;1.70;;;1.30;;
31442;SDS011;18065;55.876;9.830;2024-01-11T04:29:25;1.40;;;1.30;;
31442;SDS011;18065;55.876;9.830;2024-01-11T04:31:54;1.40;;;1.10;;
31442;SDS011;18065;55.876;9.830;2024-01-11T04:34:23;1.25;;;1.02;;
31442;SDS011;18065;55.876;9.830;2024-01-11T04:36:52;1.70;;;1.20;;
31442;SDS011;18065;55.876;9.830;2024-01-11T04:39:21;1.10;;;1.00;;
31442;SDS011;18065;55.876;9.830;2024-01-11T04:41:52;1.30;;;1.02;;
31442;SDS011;18065;55.876;9.830;2024-01-11T04:44:21;1.30;;;1.10;;
31442;SDS011;18065;55.876;9.830;2024-01-11T04:46:50;1.45;;;1.23;;
31442;SDS011;18065;55.876;9.830;2024-01-11T04:49:19;1.30;;;1.10;;
31442;SDS011;18065;55.876;9.830;2024-01-11T04:51:48;1.40;;;1.27;;
31442;SDS011;18065;55.876;9.830;2024-01-11T04:54:17;1.30;;;1.00;;
31442;SDS011;18065;55.876;9.830;2024-01-11T04:56:46;1.42;;;1.02;;
31442;SDS011;18065;55.876;9.830;2024-01-11T04:59:17;1.45;;;1.13;;
31442;SDS011;18065;55.876;9.830;2024-01-11T05:01:46;1.00;;;0.90;;
31442;SDS011;18065;55.876;9.830;2024-01-11T05:04:15;1.10;;;1.00;;
31442;SDS011;18065;55.876;9.830;2024-01-11T05:06:44;1.05;;;0.90;;
31442;SDS011;18065;55.876;9.830;2024-01-11T05:09:13;1.02;;;1.00;;
31442;SDS011;18065;55.876;9.830;2024-01-11T05:11:42;3.20;;;1.10;;
31442;SDS011;18065;55.876;9.830;2024-01-11T05:14:11;1.00;;;0.80;;
31442;SDS011;18065;55.876;9.830;2024-01-11T05:16:42;1.23;;;1.00;;
31442;SDS011;18065;55.876;9.830;2024-01-11T05:19:11;1.00;;;0.85;;
31442;SDS011;18065;55.876;9.830;2024-01-11T05:21:40;1.30;;;0.98;;
31442;SDS011;18065;55.876;9.830;2024-01-11T05:24:09;0.75;;;0.75;;
31442;SDS011;18065;55.876;9.830;2024-01-11T05:26:38;1.20;;;1.13;;
31442;SDS011;18065;55.876;9.830;2024-01-11T05:29:07;1.25;;;1.15;;
31442;SDS011;18065;55.876;9.830;2024-01-11T05:31:36;1.00;;;0.90;;
31442;SDS011;18065;55.876;9.830;2024-01-11T05:34:08;1.27;;;1.17;;
31442;SDS011;18065;55.876;9.830;2024-01-11T05:36:38;2.10;;;0.90;;
31442;SDS011;18065;55.876;9.830;2024-01-11T05:39:07;1.10;;;1.00;;
31442;SDS011;18065;55.876;9.830;2024-01-11T05:41:36;3.10;;;1.00;;
31442;SDS011;18065;55.876;9.830;2024-01-11T05:44:05;3.20;;;1.20;;
31442;SDS011;18065;55.876;9.830;2024-01-11T05:46:34;1.05;;;0.95;;
31442;SDS011;18065;55.876;9.830;2024-01-11T05:49:03;0.93;;;0.70;;
31442;SDS011;18065;55.876;9.830;2024-01-11T05:51:35;1.10;;;1.00;;
31442;SDS011;18065;55.876;9.830;2024-01-11T05:54:04;1.05;;;0.95;;
31442;SDS011;18065;55.876;9.830;2024-01-11T05:56:33;1.10;;;1.00;;
31442;SDS011;18065;55.876;9.830;2024-01-11T05:59:02;2.25;;;0.88;;
31442;SDS011;18065;55.876;9.830;2024-01-11T06:01:31;1.27;;;0.80;;
31442;SDS011;18065;55.876;9.830;2024-01-11T06:04:00;0.90;;;0.80;;
31442;SDS011;18065;55.876;9.830;2024-01-11T06:06:28;1.58;;;0.80;;
31442;SDS011;18065;55.876;9.830;2024-01-11T06:09:00;0.60;;;0.60;;
31442;SDS011;18065;55.876;9.830;2024-01-11T06:11:30;0.93;;;0.82;;
31442;SDS011;18065;55.876;9.830;2024-01-11T06:13:58;1.27;;;0.95;;
31442;SDS011;18065;55.876;9.830;2024-01-11T06:16:28;0.68;;;0.68;;
31442;SDS011;18065;55.876;9.830;2024-01-11T06:18:57;1.33;;;0.80;;
31442;SDS011;18065;55.876;9.830;2024-01-11T06:21:26;1.02;;;0.85;;
31442;SDS011;18065;55.876;9.830;2024-01-11T06:23:55;0.85;;;0.60;;
31442;SDS011;18065;55.876;9.830;2024-01-11T06:26:26;0.70;;;0.70;;
31442;SDS011;18065;55.876;9.830;2024-01-11T06:28:55;1.90;;;0.98;;
31442;SDS011;18065;55.876;9.830;2024-01-11T06:31:24;2.13;;;1.00;;
31442;SDS011;18065;55.876;9.830;2024-01-11T06:33:53;0.77;;;0.77;;
31442;SDS011;18065;55.876;9.830;2024-01-11T06:36:22;1.17;;;0.90;;
31442;SDS011;18065;55.876;9.830;2024-01-11T06:38:51;1.25;;;0.75;;
31442;SDS011;18065;55.876;9.830;2024-01-11T06:41:20;2.03;;;0.85;;
31442;SDS011;18065;55.876;9.830;2024-01-11T06:43:52;1.40;;;0.93;;
31442;SDS011;18065;55.876;9.830;2024-01-11T06:46:21;1.65;;;0.85;;
31442;SDS011;18065;55.876;9.830;2024-01-11T06:48:50;2.72;;;0.80;;
31442;SDS011;18065;55.876;9.830;2024-01-11T06:51:20;1.00;;;0.77;;
31442;SDS011;18065;55.876;9.830;2024-01-11T06:53:49;4.15;;;0.95;;
31442;SDS011;18065;55.876;9.830;2024-01-11T06:56:18;0.95;;;0.85;;
31442;SDS011;18065;55.876;9.830;2024-01-11T06:58:51;1.25;;;0.80;;
31442;SDS011;18065;55.876;9.830;2024-01-11T07:01:20;2.85;;;0.73;;
31442;SDS011;18065;55.876;9.830;2024-01-11T07:03:49;0.77;;;0.60;;
31442;SDS011;18065;55.876;9.830;2024-01-11T07:06:18;1.17;;;0.90;;
31442;SDS011;18065;55.876;9.830;2024-01-11T07:08:47;5.28;;;0.90;;
31442;SDS011;18065;55.876;9.830;2024-01-11T07:11:16;1.70;;;1.02;;
31442;SDS011;18065;55.876;9.830;2024-01-11T07:13:45;1.25;;;0.80;;
31442;SDS011;18065;55.876;9.830;2024-01-11T07:16:16;1.42;;;0.70;;
31442;SDS011;18065;55.876;9.830;2024-01-11T07:18:45;1.45;;;0.90;;
31442;SDS011;18065;55.876;9.830;2024-01-11T07:21:19;2.50;;;0.80;;
31442;SDS011;18065;55.876;9.830;2024-01-11T07:23:54;3.35;;;0.98;;
31442;SDS011;18065;55.876;9.830;2024-01-11T07:26:25;1.63;;;0.80;;
31442;SDS011;18065;55.876;9.830;2024-01-11T07:28:54;1.77;;;0.85;;
31442;SDS011;18065;55.876;9.830;2024-01-11T07:31:25;8.60;;;1.15;;
31442;SDS011;18065;55.876;9.830;2024-01-11T07:33:54;9.15;;;1.23;;
31442;SDS011;18065;55.876;9.830;2024-01-11T07:36:23;2.40;;;0.80;;
31442;SDS011;18065;55.876;9.830;2024-01-11T07:38:52;1.25;;;0.60;;
31442;SDS011;18065;55.876;9.830;2024-01-11T07:41:21;2.80;;;0.80;;
31442;SDS011;18065;55.876;9.830;2024-01-11T07:43:50;0.80;;;0.60;;
31442;SDS011;18065;55.876;9.830;2024-01-11T07:48:55;2.15;;;0.63;;
31442;SDS011;18065;55.876;9.830;2024-01-11T07:51:24;2.53;;;0.55;;
31442;SDS011;18065;55.876;9.830;2024-01-11T07:53:53;3.45;;;0.70;;
31442;SDS011;18065;55.876;9.830;2024-01-11T07:56:22;0.90;;;0.75;;
31442;SDS011;18065;55.876;9.830;2024-01-11T07:58:51;1.50;;;0.90;;
31442;SDS011;18065;55.876;9.830;2024-01-11T08:01:20;5.03;;;0.93;;
31442;SDS011;18065;55.876;9.830;2024-01-11T08:03:52;1.90;;;0.80;;
31442;SDS011;18065;55.876;9.830;2024-01-11T08:06:20;4.22;;;0.82;;
31442;SDS011;18065;55.876;9.830;2024-01-11T08:08:52;1.30;;;0.75;;
31442;SDS011;18065;55.876;9.830;2024-01-11T08:11:21;1.02;;;0.70;;
31442;SDS011;18065;55.876;9.830;2024-01-11T08:13:50;1.50;;;0.77;;
31442;SDS011;18065;55.876;9.830;2024-01-11T08:16:20;3.88;;;1.00;;
31442;SDS011;18065;55.876;9.830;2024-01-11T08:18:51;1.00;;;0.70;;
31442;SDS011;18065;55.876;9.830;2024-01-11T08:21:20;1.80;;;0.90;;
31442;SDS011;18065;55.876;9.830;2024-01-11T08:23:49;3.17;;;0.95;;
31442;SDS011;18065;55.876;9.830;2024-01-11T08:26:18;1.80;;;0.77;;
31442;SDS011;18065;55.876;9.830;2024-01-11T08:28:47;1.42;;;0.73;;
31442;SDS011;18065;55.876;9.830;2024-01-11T08:31:16;3.03;;;0.70;;
31442;SDS011;18065;55.876;9.830;2024-01-11T08:33:45;1.35;;;0.80;;
31442;SDS011;18065;55.876;9.830;2024-01-11T08:36:17;2.80;;;0.88;;
31442;SDS011;18065;55.876;9.830;2024-01-11T08:38:47;0.70;;;0.55;;
31442;SDS011;18065;55.876;9.830;2024-01-11T08:41:16;3.50;;;0.95;;
31442;SDS011;18065;55.876;9.830;2024-01-11T08:43:45;2.83;;;1.00;;
31442;SDS011;18065;55.876;9.830;2024-01-11T08:46:22;5.10;;;1.00;;
31442;SDS011;18065;55.876;9.830;2024-01-11T08:48:53;4.20;;;0.93;;
31442;SDS011;18065;55.876;9.830;2024-01-11T08:51:25;2.55;;;1.00;;
31442;SDS011;18065;55.876;9.830;2024-01-11T08:53:54;6.60;;;1.17;;
31442;SDS011;18065;55.876;9.830;2024-01-11T08:56:22;4.25;;;0.98;;
31442;SDS011;18065;55.876;9.830;2024-01-11T08:58:51;1.00;;;0.73;;
31442;SDS011;18065;55.876;9.830;2024-01-11T09:01:20;7.75;;;1.42;;
31442;SDS011;18065;55.876;9.830;2024-01-11T09:03:50;4.15;;;1.02;;
31442;SDS011;18065;55.876;9.830;2024-01-11T09:06:19;1.98;;;0.50;;
31442;SDS011;18065;55.876;9.830;2024-01-11T09:08:50;2.28;;;1.00;;
31442;SDS011;18065;55.876;9.830;2024-01-11T09:11:19;1.70;;;0.90;;
31442;SDS011;18065;55.876;9.830;2024-01-11T09:13:48;0.88;;;0.70;;
31442;SDS011;18065;55.876;9.830;2024-01-11T09:16:17;2.03;;;0.60;;
31442;SDS011;18065;55.876;9.830;2024-01-11T09:18:46;3.78;;;1.02;;
31442;SDS011;18065;55.876;9.830;2024-01-11T09:21:15;7.90;;;1.02;;
31442;SDS011;18065;55.876;9.830;2024-01-11T09:23:43;2.33;;;0.80;;
31442;SDS011;18065;55.876;9.830;2024-01-11T09:26:15;3.13;;;0.80;;
31442;SDS011;18065;55.876;9.830;2024-01-11T09:28:44;2.03;;;0.80;;
31442;SDS011;18065;55.876;9.830;2024-01-11T09:31:13;4.00;;;0.63;;
31442;SDS011;18065;55.876;9.830;2024-01-11T09:33:42;2.58;;;0.77;;
31442;SDS011;18065;55.876;9.830;2024-01-11T09:36:11;1.20;;;0.77;;
31442;SDS011;18065;55.876;9.830;2024-01-11T09:38:41;2.40;;;0.73;;
31442;SDS011;18065;55.876;9.830;2024-01-11T09:41:11;2.53;;;0.70;;
31442;SDS011;18065;55.876;9.830;2024-01-11T09:43:43;0.98;;;0.70;;
31442;SDS011;18065;55.876;9.830;2024-01-11T09:46:14;1.10;;;0.80;;
31442;SDS011;18065;55.876;9.830;2024-01-11T09:48:46;1.60;;;0.70;;
31442;SDS011;18065;55.876;9.830;2024-01-11T09:51:17;1.67;;;0.85;;
31442;SDS011;18065;55.876;9.830;2024-01-11T09:53:46;10.45;;;1.08;;
31442;SDS011;18065;55.876;9.830;2024-01-11T09:56:19;0.95;;;0.70;;
31442;SDS011;18065;55.876;9.830;2024-01-11T09:58:51;1.73;;;1.00;;
31442;SDS011;18065;55.876;9.830;2024-01-11T10:01:20;2.10;;;0.80;;
31442;SDS011;18065;55.876;9.830;2024-01-11T10:03:49;3.30;;;0.60;;
31442;SDS011;18065;55.876;9.830;2024-01-11T10:06:18;4.45;;;0.75;;
31442;SDS011;18065;55.876;9.830;2024-01-11T10:08:48;1.13;;;0.70;;
31442;SDS011;18065;55.876;9.830;2024-01-11T10:11:17;1.95;;;0.60;;
31442;SDS011;18065;55.876;9.830;2024-01-11T10:13:46;2.17;;;0.75;;
31442;SDS011;18065;55.876;9.830;2024-01-11T10:16:17;2.08;;;0.65;;
31442;SDS011;18065;55.876;9.830;2024-01-11T10:18:46;1.13;;;0.70;;
31442;SDS011;18065;55.876;9.830;2024-01-11T10:21:15;4.15;;;0.88;;
31442;SDS011;18065;55.876;9.830;2024-01-11T10:23:44;5.15;;;0.80;;
31442;SDS011;18065;55.876;9.830;2024-01-11T10:26:15;3.53;;;0.98;;
31442;SDS011;18065;55.876;9.830;2024-01-11T10:28:44;3.80;;;0.85;;
31442;SDS011;18065;55.876;9.830;2024-01-11T10:31:13;2.05;;;0.63;;
31442;SDS011;18065;55.876;9.830;2024-01-11T10:33:46;2.75;;;0.80;;
31442;SDS011;18065;55.876;9.830;2024-01-11T10:36:15;1.42;;;0.63;;
31442;SDS011;18065;55.876;9.830;2024-01-11T10:38:43;1.50;;;0.70;;
31442;SDS011;18065;55.876;9.830;2024-01-11T10:41:16;1.67;;;0.70;;
31442;SDS011;18065;55.876;9.830;2024-01-11T10:43:48;1.67;;;0.88;;
31442;SDS011;18065;55.876;9.830;2024-01-11T10:46:18;1.52;;;0.65;;
31442;SDS011;18065;55.876;9.830;2024-01-11T10:48:53;1.58;;;0.85;;
31442;SDS011;18065;55.876;9.830;2024-01-11T10:51:24;2.28;;;0.77;;
31442;SDS011;18065;55.876;9.830;2024-01-11T10:53:56;4.60;;;0.68;;
31442;SDS011;18065;55.876;9.830;2024-01-11T10:56:25;1.23;;;0.63;;
31442;SDS011;18065;55.876;9.830;2024-01-11T10:58:56;1.30;;;0.70;;
31442;SDS011;18065;55.876;9.830;2024-01-11T11:01:26;1.95;;;0.85;;
31442;SDS011;18065;55.876;9.830;2024-01-11T11:03:57;1.42;;;0.60;;
31442;SDS011;18065;55.876;9.830;2024-01-11T11:06:28;2.22;;;0.70;;
31442;SDS011;18065;55.876;9.830;2024-01-11T11:09:00;3.10;;;0.53;;
31442;SDS011;18065;55.876;9.830;2024-01-11T11:11:30;0.70;;;0.60;;
31442;SDS011;18065;55.876;9.830;2024-01-11T11:13:59;2.75;;;0.65;;
31442;SDS011;18065;55.876;9.830;2024-01-11T11:16:29;1.63;;;0.70;;
31442;SDS011;18065;55.876;9.830;2024-01-11T11:19:00;1.27;;;0.77;;
31442;SDS011;18065;55.876;9.830;2024-01-11T11:21:29;2.63;;;0.95;;
31442;SDS011;18065;55.876;9.830;2024-01-11T11:23:58;2.75;;;0.50;;
31442;SDS011;18065;55.876;9.830;2024-01-11T11:26:31;1.98;;;0.40;;
31442;SDS011;18065;55.876;9.830;2024-01-11T11:29:01;2.20;;;0.55;;
31442;SDS011;18065;55.876;9.830;2024-01-11T11:31:34;2.13;;;0.73;;
31442;SDS011;18065;55.876;9.830;2024-01-11T11:34:07;1.48;;;0.80;;
31442;SDS011;18065;55.876;9.830;2024-01-11T11:36:39;2.15;;;0.52;;
31442;SDS011;18065;55.876;9.830;2024-01-11T11:39:10;1.17;;;0.75;;
31442;SDS011;18065;55.876;9.830;2024-01-11T11:41:39;1.20;;;0.50;;
31442;SDS011;18065;55.876;9.830;2024-01-11T11:44:08;1.00;;;0.65;;
31442;SDS011;18065;55.876;9.830;2024-01-11T11:46:40;1.55;;;0.70;;
31442;SDS011;18065;55.876;9.830;2024-01-11T11:49:13;2.05;;;0.70;;
31442;SDS011;18065;55.876;9.830;2024-01-11T11:51:42;1.20;;;0.60;;
31442;SDS011;18065;55.876;9.830;2024-01-11T11:54:12;1.75;;;0.52;;
31442;SDS011;18065;55.876;9.830;2024-01-11T11:56:42;1.30;;;0.65;;
31442;SDS011;18065;55.876;9.830;2024-01-11T11:59:11;0.55;;;0.50;;
31442;SDS011;18065;55.876;9.830;2024-01-11T12:01:41;1.30;;;0.55;;
31442;SDS011;18065;55.876;9.830;2024-01-11T12:04:10;1.00;;;0.60;;
31442;SDS011;18065;55.876;9.830;2024-01-11T12:06:43;0.85;;;0.50;;
31442;SDS011;18065;55.876;9.830;2024-01-11T12:09:11;0.75;;;0.40;;
31442;SDS011;18065;55.876;9.830;2024-01-11T12:11:47;1.60;;;0.60;;
31442;SDS011;18065;55.876;9.830;2024-01-11T12:14:16;0.80;;;0.60;;
31442;SDS011;18065;55.876;9.830;2024-01-11T12:16:45;5.13;;;0.82;;
31442;SDS011;18065;55.876;9.830;2024-01-11T12:19:26;2.30;;;0.60;;
31442;SDS011;18065;55.876;9.830;2024-01-11T12:21:56;3.50;;;0.60;;
31442;SDS011;18065;55.876;9.830;2024-01-11T12:24:25;0.82;;;0.70;;
31442;SDS011;18065;55.876;9.830;2024-01-11T12:26:56;2.33;;;0.50;;
31442;SDS011;18065;55.876;9.830;2024-01-11T12:29:25;1.13;;;0.50;;
31442;SDS011;18065;55.876;9.830;2024-01-11T12:31:56;0.60;;;0.57;;
31442;SDS011;18065;55.876;9.830;2024-01-11T12:34:28;3.10;;;0.65;;
31442;SDS011;18065;55.876;9.830;2024-01-11T12:36:58;0.95;;;0.52;;
31442;SDS011;18065;55.876;9.830;2024-01-11T12:39:30;1.67;;;0.55;;
31442;SDS011;18065;55.876;9.830;2024-01-11T12:41:59;0.40;;;0.40;;
31442;SDS011;18065;55.876;9.830;2024-01-11T12:44:28;2.33;;;0.50;;
31442;SDS011;18065;55.876;9.830;2024-01-11T12:46:58;4.15;;;0.60;;
31442;SDS011;18065;55.876;9.830;2024-01-11T12:49:29;0.90;;;0.40;;
31442;SDS011;18065;55.876;9.830;2024-01-11T12:51:58;2.85;;;0.68;;
31442;SDS011;18065;55.876;9.830;2024-01-11T12:54:27;1.35;;;0.60;;
31442;SDS011;18065;55.876;9.830;2024-01-11T12:57:02;4.43;;;0.90;;
31442;SDS011;18065;55.876;9.830;2024-01-11T12:59:31;2.20;;;0.47;;
31442;SDS011;18065;55.876;9.830;2024-01-11T13:02:00;3.45;;;0.82;;
31442;SDS011;18065;55.876;9.830;2024-01-11T13:04:31;1.33;;;0.50;;
31442;SDS011;18065;55.876;9.830;2024-01-11T13:07:02;1.58;;;0.70;;
31442;SDS011;18065;55.876;9.830;2024-01-11T13:09:32;2.55;;;0.68;;
31442;SDS011;18065;55.876;9.830;2024-01-11T13:12:01;2.63;;;0.52;;
31442;SDS011;18065;55.876;9.830;2024-01-11T13:14:30;1.48;;;0.65;;
31442;SDS011;18065;55.876;9.830;2024-01-11T13:17:00;1.25;;;0.60;;
31442;SDS011;18065;55.876;9.830;2024-01-11T13:19:31;2.80;;;0.75;;
31442;SDS011;18065;55.876;9.830;2024-01-11T13:22:00;1.48;;;0.60;;
31442;SDS011;18065;55.876;9.830;2024-01-11T13:24:29;1.13;;;0.60;;
31442;SDS011;18065;55.876;9.830;2024-01-11T13:26:58;1.00;;;0.50;;
31442;SDS011;18065;55.876;9.830;2024-01-11T13:29:28;2.10;;;0.50;;
31442;SDS011;18065;55.876;9.830;2024-01-11T13:31:57;1.45;;;0.55;;
31442;SDS011;18065;55.876;9.830;2024-01-11T13:34:25;1.45;;;0.63;;
31442;SDS011;18065;55.876;9.830;2024-01-11T13:36:57;0.73;;;0.50;;
31442;SDS011;18065;55.876;9.830;2024-01-11T13:39:28;1.25;;;0.40;;
31442;SDS011;18065;55.876;9.830;2024-01-11T13:41:57;3.25;;;0.70;;
31442;SDS011;18065;55.876;9.830;2024-01-11T13:44:26;2.05;;;0.50;;
31442;SDS011;18065;55.876;9.830;2024-01-11T13:46:55;0.82;;;0.50;;
31442;SDS011;18065;55.876;9.830;2024-01-11T13:49:23;2.65;;;0.73;;
31442;SDS011;18065;55.876;9.830;2024-01-11T13:51:52;1.00;;;0.45;;
31442;SDS011;18065;55.876;9.830;2024-01-11T13:54:24;2.55;;;0.73;;
31442;SDS011;18065;55.876;9.830;2024-01-11T13:56:53;0.50;;;0.47;;
31442;SDS011;18065;55.876;9.830;2024-01-11T13:59:22;0.52;;;0.40;;
31442;SDS011;18065;55.876;9.830;2024-01-11T14:01:51;3.75;;;0.80;;
31442;SDS011;18065;55.876;9.830;2024-01-11T14:04:20;1.40;;;0.60;;
31442;SDS011;18065;55.876;9.830;2024-01-11T14:06:50;2.38;;;0.60;;
31442;SDS011;18065;55.876;9.830;2024-01-11T14:09:19;1.65;;;0.50;;
31442;SDS011;18065;55.876;9.830;2024-01-11T14:11:52;2.17;;;0.80;;
31442;SDS011;18065;55.876;9.830;2024-01-11T14:14:20;4.85;;;1.15;;
31442;SDS011;18065;55.876;9.830;2024-01-11T14:16:49;0.88;;;0.50;;
31442;SDS011;18065;55.876;9.830;2024-01-11T14:19:19;0.82;;;0.60;;
31442;SDS011;18065;55.876;9.830;2024-01-11T14:21:48;2.50;;;0.50;;
31442;SDS011;18065;55.876;9.830;2024-01-11T14:24:17;0.75;;;0.47;;
31442;SDS011;18065;55.876;9.830;2024-01-11T14:26:46;2.05;;;0.50;;
31442;SDS011;18065;55.876;9.830;2024-01-11T14:29:17;0.75;;;0.40;;
31442;SDS011;18065;55.876;9.830;2024-01-11T14:31:46;1.05;;;0.73;;
31442;SDS011;18065;55.876;9.830;2024-01-11T14:34:15;1.48;;;0.60;;
31442;SDS011;18065;55.876;9.830;2024-01-11T14:36:44;0.77;;;0.70;;
31442;SDS011;18065;55.876;9.830;2024-01-11T14:39:13;1.00;;;0.60;;
31442;SDS011;18065;55.876;9.830;2024-01-11T14:41:42;2.85;;;0.73;;
31442;SDS011;18065;55.876;9.830;2024-01-11T14:44:11;1.30;;;0.60;;
31442;SDS011;18065;55.876;9.830;2024-01-11T14:46:42;1.40;;;0.50;;
31442;SDS011;18065;55.876;9.830;2024-01-11T14:49:11;0.82;;;0.50;;
31442;SDS011;18065;55.876;9.830;2024-01-11T14:51:40;1.70;;;0.50;;
31442;SDS011;18065;55.876;9.830;2024-01-11T14:54:09;2.17;;;0.73;;
31442;SDS011;18065;55.876;9.830;2024-01-11T14:56:38;0.60;;;0.40;;
31442;SDS011;18065;55.876;9.830;2024-01-11T14:59:07;0.82;;;0.50;;
31442;SDS011;18065;55.876;9.830;2024-01-11T15:01:36;0.70;;;0.52;;
31442;SDS011;18065;55.876;9.830;2024-01-11T15:04:07;1.83;;;0.40;;